sensor_id;sensor_type;location;lat;lon;timestamp;pressure;altitude;pressure_sealevel;temperature;humidity
9893;BME280;4985;49.092;8.542;2023-03-21T00:01:56;99603.69;;;16.99;52.67
9893;BME280;4985;49.092;8.542;2023-03-21T00:04:26;99597.53;;;16.99;52.67
9893;BME280;4985;49.092;8.542;2023-03-21T00:06:52;99592.22;;;16.99;52.67
9893;BME280;4985;49.092;8.542;2023-03-21T00:09:20;99597.53;;;16.99;52.67
9893;BME280;4985;49.092;8.542;2023-03-21T00:11:47;99596.72;;;16.98;52.68
9893;BME280;4985;49.092;8.542;2023-03-21T00:14:13;99591.38;;;16.98;52.69
9893;BME280;4985;49.092;8.542;2023-03-21T00:16:43;99591.38;;;16.98;52.68
9893;BME280;4985;49.092;8.542;2023-03-21T00:19:14;99590.56;;;16.98;52.67
9893;BME280;4985;49.092;8.542;2023-03-21T00:21:42;99593.22;;;16.98;52.67
9893;BME280;4985;49.092;8.542;2023-03-21T00:24:10;99584.44;;;16.97;52.68
9893;BME280;4985;49.092;8.542;2023-03-21T00:26:37;99585.25;;;16.98;52.68
9893;BME280;4985;49.092;8.542;2023-03-21T00:29:04;99580.94;;;16.97;52.67
9893;BME280;4985;49.092;8.542;2023-03-21T00:31:30;99574.81;;;16.96;52.70
9893;BME280;4985;49.092;8.542;2023-03-21T00:33:57;99583.59;;;16.97;52.69
9893;BME280;4985;49.092;8.542;2023-03-21T00:36:24;99568.69;;;16.96;52.69
9893;BME280;4985;49.092;8.542;2023-03-21T00:38:52;99563.34;;;16.96;52.68
9893;BME280;4985;49.092;8.542;2023-03-21T00:41:19;99566.84;;;16.96;52.68
9893;BME280;4985;49.092;8.542;2023-03-21T00:43:46;99561.50;;;16.96;52.68
9893;BME280;4985;49.092;8.542;2023-03-21T00:46:12;99563.34;;;16.96;52.69
9893;BME280;4985;49.092;8.542;2023-03-21T00:48:39;99562.34;;;16.97;52.69
9893;BME280;4985;49.092;8.542;2023-03-21T00:51:11;99550.06;;;16.96;52.69
9893;BME280;4985;49.092;8.542;2023-03-21T00:53:40;99555.38;;;16.96;52.68
9893;BME280;4985;49.092;8.542;2023-03-21T00:56:08;99552.72;;;16.96;52.68
9893;BME280;4985;49.092;8.542;2023-03-21T00:58:35;99548.22;;;16.96;52.70
9893;BME280;4985;49.092;8.542;2023-03-21T01:01:02;99541.47;;;16.94;52.69
9893;BME280;4985;49.092;8.542;2023-03-21T01:03:32;99539.22;;;16.91;52.69
9893;BME280;4985;49.092;8.542;2023-03-21T01:05:58;99543.09;;;16.95;52.69
9893;BME280;4985;49.092;8.542;2023-03-21T01:08:31;99541.47;;;16.94;52.69
9893;BME280;4985;49.092;8.542;2023-03-21T01:11:01;99536.16;;;16.94;52.70
9893;BME280;4985;49.092;8.542;2023-03-21T01:13:29;99535.13;;;16.95;52.70
9893;BME280;4985;49.092;8.542;2023-03-21T01:15:56;99542.28;;;16.94;52.70
9893;BME280;4985;49.092;8.542;2023-03-21T01:18:25;99544.13;;;16.94;52.70
9893;BME280;4985;49.092;8.542;2023-03-21T01:20:53;99524.28;;;16.90;52.70
9893;BME280;4985;49.092;8.542;2023-03-21T01:23:20;99532.66;;;16.93;52.70
9893;BME280;4985;49.092;8.542;2023-03-21T01:25:47;99532.66;;;16.93;52.70
9893;BME280;4985;49.092;8.542;2023-03-21T01:28:14;99539.81;;;16.93;52.70
9893;BME280;4985;49.092;8.542;2023-03-21T01:30:45;99528.37;;;16.92;52.70
9893;BME280;4985;49.092;8.542;2023-03-21T01:33:12;99529.19;;;16.93;52.71
9893;BME280;4985;49.092;8.542;2023-03-21T01:35:38;99529.19;;;16.93;52.71
9893;BME280;4985;49.092;8.542;2023-03-21T01:38:05;99530.22;;;16.92;52.71
9893;BME280;4985;49.092;8.542;2023-03-21T01:40:32;99524.06;;;16.91;52.73
9893;BME280;4985;49.092;8.542;2023-03-21T01:42:59;99531.03;;;16.92;52.70
9893;BME280;4985;49.092;8.542;2023-03-21T01:48:49;99522.22;;;16.92;52.72
9893;BME280;4985;49.092;8.542;2023-03-21T01:51:17;99517.12;;;16.90;52.71
9893;BME280;4985;49.092;8.542;2023-03-21T01:53:45;99522.22;;;16.92;52.71
9893;BME280;4985;49.092;8.542;2023-03-21T01:56:17;99516.09;;;16.91;52.72
9893;BME280;4985;49.092;8.542;2023-03-21T01:58:46;99521.41;;;16.91;52.72
9893;BME280;4985;49.092;8.542;2023-03-21T02:01:13;99515.47;;;16.89;52.71
9893;BME280;4985;49.092;8.542;2023-03-21T02:03:41;99520.59;;;16.91;52.71
9893;BME280;4985;49.092;8.542;2023-03-21T02:06:21;99518.97;;;16.90;52.72
9893;BME280;4985;49.092;8.542;2023-03-21T02:08:56;99518.97;;;16.90;52.73
9893;BME280;4985;49.092;8.542;2023-03-21T02:11:23;99508.31;;;16.90;52.72
9893;BME280;4985;49.092;8.542;2023-03-21T02:13:51;99512.81;;;16.89;52.73
9893;BME280;4985;49.092;8.542;2023-03-21T02:16:24;99507.50;;;16.89;52.72
9893;BME280;4985;49.092;8.542;2023-03-21T02:18:57;99499.53;;;16.89;52.73
9893;BME280;4985;49.092;8.542;2023-03-21T02:27:28;99490.72;;;16.88;52.72
9893;BME280;4985;49.092;8.542;2023-03-21T02:33:24;99489.91;;;16.88;52.72
9893;BME280;4985;49.092;8.542;2023-03-21T02:36:15;99494.41;;;16.87;52.73
9893;BME280;4985;49.092;8.542;2023-03-21T02:38:51;99485.59;;;16.87;52.73
9893;BME280;4985;49.092;8.542;2023-03-21T02:41:25;99487.44;;;16.86;52.73
9893;BME280;4985;49.092;8.542;2023-03-21T02:43:55;99483.13;;;16.85;52.74
9893;BME280;4985;49.092;8.542;2023-03-21T02:46:29;99482.09;;;16.86;52.75
9893;BME280;4985;49.092;8.542;2023-03-21T02:49:02;99484.75;;;16.86;52.75
9893;BME280;4985;49.092;8.542;2023-03-21T02:51:33;99487.44;;;16.86;52.75
9893;BME280;4985;49.092;8.542;2023-03-21T02:54:07;99490.09;;;16.86;52.74
9893;BME280;4985;49.092;8.542;2023-03-21T02:56:35;99488.44;;;16.85;52.75
9893;BME280;4985;49.092;8.542;2023-03-21T02:59:05;99489.47;;;16.84;52.75
9893;BME280;4985;49.092;8.542;2023-03-21T03:01:33;99486.00;;;16.84;52.76
9893;BME280;4985;49.092;8.542;2023-03-21T03:03:59;99488.66;;;16.84;52.76
9893;BME280;4985;49.092;8.542;2023-03-21T03:06:29;99480.47;;;16.85;52.76
9893;BME280;4985;49.092;8.542;2023-03-21T03:09:14;99484.16;;;16.84;52.75
9893;BME280;4985;49.092;8.542;2023-03-21T03:11:50;99484.16;;;16.84;52.76
9893;BME280;4985;49.092;8.542;2023-03-21T03:14:34;99475.34;;;16.84;52.75
9893;BME280;4985;49.092;8.542;2023-03-21T03:17:15;99478.00;;;16.84;52.75
9893;BME280;4985;49.092;8.542;2023-03-21T03:19:51;99475.34;;;16.84;52.75
9893;BME280;4985;49.092;8.542;2023-03-21T03:22:24;99464.91;;;16.82;52.75
9893;BME280;4985;49.092;8.542;2023-03-21T03:24:57;99455.91;;;16.83;52.75
9893;BME280;4985;49.092;8.542;2023-03-21T03:27:28;99462.25;;;16.82;52.75
9893;BME280;4985;49.092;8.542;2023-03-21T03:29:59;99456.12;;;16.82;52.74
9893;BME280;4985;49.092;8.542;2023-03-21T03:32:32;99462.25;;;16.82;52.75
9893;BME280;4985;49.092;8.542;2023-03-21T03:35:02;99453.47;;;16.82;52.76
9893;BME280;4985;49.092;8.542;2023-03-21T03:37:31;99459.41;;;16.77;52.76
9893;BME280;4985;49.092;8.542;2023-03-21T03:40:03;99464.09;;;16.82;52.75
9893;BME280;4985;49.092;8.542;2023-03-21T03:42:34;99463.28;;;16.81;52.75
9893;BME280;4985;49.092;8.542;2023-03-21T03:45:02;99464.91;;;16.82;52.75
9893;BME280;4985;49.092;8.542;2023-03-21T03:47:34;99452.66;;;16.81;52.75
9893;BME280;4985;49.092;8.542;2023-03-21T03:50:07;99452.25;;;16.78;52.75
9893;BME280;4985;49.092;8.542;2023-03-21T03:52:37;99457.16;;;16.81;52.74
9893;BME280;4985;49.092;8.542;2023-03-21T03:55:08;99459.81;;;16.81;52.75
9893;BME280;4985;49.092;8.542;2023-03-21T03:57:37;99460.63;;;16.81;52.75
9893;BME280;4985;49.092;8.542;2023-03-21T04:00:05;99466.97;;;16.80;52.75
9893;BME280;4985;49.092;8.542;2023-03-21T04:02:36;99460.81;;;16.80;52.75
9893;BME280;4985;49.092;8.542;2023-03-21T04:05:03;99458.16;;;16.80;52.75
9893;BME280;4985;49.092;8.542;2023-03-21T04:07:29;99460.00;;;16.79;52.75
9893;BME280;4985;49.092;8.542;2023-03-21T04:09:56;99460.81;;;16.80;52.74
9893;BME280;4985;49.092;8.542;2023-03-21T04:12:24;99455.50;;;16.80;52.74
9893;BME280;4985;49.092;8.542;2023-03-21T04:14:51;99455.50;;;16.80;52.75
9893;BME280;4985;49.092;8.542;2023-03-21T04:17:18;99453.88;;;16.79;52.76
9893;BME280;4985;49.092;8.542;2023-03-21T04:19:44;99447.75;;;16.78;52.77
9893;BME280;4985;49.092;8.542;2023-03-21T04:22:12;99457.34;;;16.79;52.75
9893;BME280;4985;49.092;8.542;2023-03-21T04:24:39;99448.56;;;16.79;52.76
9893;BME280;4985;49.092;8.542;2023-03-21T04:27:06;99450.41;;;16.78;52.76
9893;BME280;4985;49.092;8.542;2023-03-21T04:29:34;99441.59;;;16.78;52.76
9893;BME280;4985;49.092;8.542;2023-03-21T04:32:01;99441.81;;;16.76;52.76
9893;BME280;4985;49.092;8.542;2023-03-21T04:34:28;99446.91;;;16.78;52.77
9893;BME280;4985;49.092;8.542;2023-03-21T04:36:54;99444.25;;;16.78;52.76
9893;BME280;4985;49.092;8.542;2023-03-21T04:39:21;99440.78;;;16.77;52.77
9893;BME280;4985;49.092;8.542;2023-03-21T04:41:49;99447.13;;;16.76;52.78
9893;BME280;4985;49.092;8.542;2023-03-21T04:44:16;99445.28;;;16.77;52.77
9893;BME280;4985;49.092;8.542;2023-03-21T04:46:44;99443.44;;;16.77;52.76
9893;BME280;4985;49.092;8.542;2023-03-21T04:49:11;99439.16;;;16.76;52.76
9893;BME280;4985;49.092;8.542;2023-03-21T04:51:37;99433.84;;;16.76;52.76
9893;BME280;4985;49.092;8.542;2023-03-21T04:54:04;99438.31;;;16.76;52.75
9893;BME280;4985;49.092;8.542;2023-03-21T04:56:31;99437.47;;;16.75;52.76
9893;BME280;4985;49.092;8.542;2023-03-21T04:58:59;99441.81;;;16.76;52.75
9893;BME280;4985;49.092;8.542;2023-03-21T05:01:27;99442.81;;;16.75;52.77
9893;BME280;4985;49.092;8.542;2023-03-21T05:03:56;99437.47;;;16.75;52.76
9893;BME280;4985;49.092;8.542;2023-03-21T05:06:23;99438.31;;;16.76;52.75
9893;BME280;4985;49.092;8.542;2023-03-21T05:08:50;99431.34;;;16.75;52.76
9893;BME280;4985;49.092;8.542;2023-03-21T05:11:17;99430.53;;;16.74;52.76
9893;BME280;4985;49.092;8.542;2023-03-21T05:13:43;99441.97;;;16.75;52.76
9893;BME280;4985;49.092;8.542;2023-03-21T05:16:10;99440.12;;;16.75;52.76
9893;BME280;4985;49.092;8.542;2023-03-21T05:18:37;99434.00;;;16.75;52.76
9893;BME280;4985;49.092;8.542;2023-03-21T05:21:05;99434.00;;;16.75;52.76
9893;BME280;4985;49.092;8.542;2023-03-21T05:23:35;99436.87;;;16.73;52.76
9893;BME280;4985;49.092;8.542;2023-03-21T05:26:04;99434.22;;;16.73;52.76
9893;BME280;4985;49.092;8.542;2023-03-21T05:28:31;99434.22;;;16.73;52.75
9893;BME280;4985;49.092;8.542;2023-03-21T05:31:00;99427.25;;;16.72;52.75
9893;BME280;4985;49.092;8.542;2023-03-21T05:33:27;99427.25;;;16.72;52.75
9893;BME280;4985;49.092;8.542;2023-03-21T05:35:53;99427.25;;;16.72;52.74
9893;BME280;4985;49.092;8.542;2023-03-21T05:38:21;99429.91;;;16.72;52.75
9893;BME280;4985;49.092;8.542;2023-03-21T05:40:48;99428.06;;;16.73;52.74
9893;BME280;4985;49.092;8.542;2023-03-21T05:43:15;99436.03;;;16.73;52.74
9893;BME280;4985;49.092;8.542;2023-03-21T05:45:41;99429.91;;;16.72;52.74
9893;BME280;4985;49.092;8.542;2023-03-21T05:48:08;99434.41;;;16.72;52.75
9893;BME280;4985;49.092;8.542;2023-03-21T05:50:35;99435.44;;;16.71;52.73
9893;BME280;4985;49.092;8.542;2023-03-21T05:53:01;99438.91;;;16.71;52.73
9893;BME280;4985;49.092;8.542;2023-03-21T05:55:29;99432.78;;;16.71;52.74
9893;BME280;4985;49.092;8.542;2023-03-21T05:57:56;99437.87;;;16.72;52.74
9893;BME280;4985;49.092;8.542;2023-03-21T06:00:23;99440.75;;;16.71;52.75
9893;BME280;4985;49.092;8.542;2023-03-21T06:02:49;99441.56;;;16.71;52.73
9893;BME280;4985;49.092;8.542;2023-03-21T06:05:16;99438.09;;;16.71;52.74
9893;BME280;4985;49.092;8.542;2023-03-21T06:07:42;99441.56;;;16.71;52.74
9893;BME280;4985;49.092;8.542;2023-03-21T06:10:10;99438.09;;;16.71;52.73
9893;BME280;4985;49.092;8.542;2023-03-21T06:12:38;99434.63;;;16.70;52.74
9893;BME280;4985;49.092;8.542;2023-03-21T06:15:06;99434.63;;;16.70;52.74
9893;BME280;4985;49.092;8.542;2023-03-21T06:17:33;99434.63;;;16.70;52.73
9893;BME280;4985;49.092;8.542;2023-03-21T06:19:59;99436.47;;;16.70;52.72
9893;BME280;4985;49.092;8.542;2023-03-21T06:22:26;99439.94;;;16.70;52.74
9893;BME280;4985;49.092;8.542;2023-03-21T06:24:53;99435.63;;;16.69;52.73
9893;BME280;4985;49.092;8.542;2023-03-21T06:27:19;99439.13;;;16.70;52.73
9893;BME280;4985;49.092;8.542;2023-03-21T06:29:47;99439.13;;;16.70;52.74
9893;BME280;4985;49.092;8.542;2023-03-21T06:32:14;99441.16;;;16.68;52.74
9893;BME280;4985;49.092;8.542;2023-03-21T06:34:41;99436.66;;;16.68;52.76
9893;BME280;4985;49.092;8.542;2023-03-21T06:37:07;99449.94;;;16.68;52.76
9893;BME280;4985;49.092;8.542;2023-03-21T06:39:34;99441.97;;;16.68;52.75
9893;BME280;4985;49.092;8.542;2023-03-21T06:42:01;99444.63;;;16.68;52.76
9893;BME280;4985;49.092;8.542;2023-03-21T06:44:28;99440.12;;;16.69;52.76
9893;BME280;4985;49.092;8.542;2023-03-21T06:46:56;99440.12;;;16.69;52.75
9893;BME280;4985;49.092;8.542;2023-03-21T06:49:22;99441.97;;;16.68;52.75
9893;BME280;4985;49.092;8.542;2023-03-21T06:51:49;99437.66;;;16.67;52.76
9893;BME280;4985;49.092;8.542;2023-03-21T06:54:15;99438.50;;;16.68;52.75
9893;BME280;4985;49.092;8.542;2023-03-21T06:56:43;99443.81;;;16.68;52.75
9893;BME280;4985;49.092;8.542;2023-03-21T06:59:09;99449.12;;;16.68;52.74
9893;BME280;4985;49.092;8.542;2023-03-21T07:01:36;99452.59;;;16.68;52.75
9893;BME280;4985;49.092;8.542;2023-03-21T07:04:05;99442.78;;;16.69;52.75
9893;BME280;4985;49.092;8.542;2023-03-21T07:06:31;99446.47;;;16.68;52.74
9893;BME280;4985;49.092;8.542;2023-03-21T07:08:58;99449.31;;;16.66;52.77
9893;BME280;4985;49.092;8.542;2023-03-21T07:11:26;99452.78;;;16.67;52.78
9893;BME280;4985;49.092;8.542;2023-03-21T07:13:53;99445.00;;;16.65;52.78
9893;BME280;4985;49.092;8.542;2023-03-21T07:16:20;99439.50;;;16.67;52.79
9893;BME280;4985;49.092;8.542;2023-03-21T07:18:47;99450.31;;;16.65;52.81
9893;BME280;4985;49.092;8.542;2023-03-21T07:21:15;99439.25;;;16.62;52.82
9893;BME280;4985;49.092;8.542;2023-03-21T07:23:42;99456.62;;;16.64;52.82
9893;BME280;4985;49.092;8.542;2023-03-21T07:26:09;99449.47;;;16.65;52.83
9893;BME280;4985;49.092;8.542;2023-03-21T07:28:35;99453.97;;;16.64;52.83
9893;BME280;4985;49.092;8.542;2023-03-21T07:31:04;99444.34;;;16.63;52.86
9893;BME280;4985;49.092;8.542;2023-03-21T07:33:32;99449.69;;;16.63;52.85
9893;BME280;4985;49.092;8.542;2023-03-21T07:36:00;99442.72;;;16.62;52.87
9893;BME280;4985;49.092;8.542;2023-03-21T07:38:28;99435.56;;;16.63;52.87
9893;BME280;4985;49.092;8.542;2023-03-21T07:40:58;99436.37;;;16.63;52.88
9893;BME280;4985;49.092;8.542;2023-03-21T07:43:25;99433.72;;;16.63;52.88
9893;BME280;4985;49.092;8.542;2023-03-21T07:45:55;99440.88;;;16.63;52.89
9893;BME280;4985;49.092;8.542;2023-03-21T07:48:22;99444.34;;;16.63;52.89
9893;BME280;4985;49.092;8.542;2023-03-21T07:50:49;99442.72;;;16.62;52.91
9893;BME280;4985;49.092;8.542;2023-03-21T07:53:15;99446.41;;;16.61;52.91
9893;BME280;4985;49.092;8.542;2023-03-21T07:55:43;99441.09;;;16.61;52.92
9893;BME280;4985;49.092;8.542;2023-03-21T07:58:10;99441.91;;;16.62;52.92
9893;BME280;4985;49.092;8.542;2023-03-21T08:00:36;99447.22;;;16.62;52.92
9893;BME280;4985;49.092;8.542;2023-03-21T08:03:03;99446.41;;;16.61;52.93
9893;BME280;4985;49.092;8.542;2023-03-21T08:05:33;99453.56;;;16.60;52.94
9893;BME280;4985;49.092;8.542;2023-03-21T08:08:00;99443.13;;;16.59;52.95
9893;BME280;4985;49.092;8.542;2023-03-21T08:10:28;99442.09;;;16.60;52.97
9893;BME280;4985;49.092;8.542;2023-03-21T08:12:56;99442.09;;;16.60;52.97
9893;BME280;4985;49.092;8.542;2023-03-21T08:15:23;99438.63;;;16.59;52.98
9893;BME280;4985;49.092;8.542;2023-03-21T08:17:49;99436.78;;;16.60;52.97
9893;BME280;4985;49.092;8.542;2023-03-21T08:20:18;99432.50;;;16.59;52.97
9893;BME280;4985;49.092;8.542;2023-03-21T08:22:45;99434.34;;;16.58;52.98
9893;BME280;4985;49.092;8.542;2023-03-21T08:25:13;99428.00;;;16.59;53.00
9893;BME280;4985;49.092;8.542;2023-03-21T08:27:43;99428.00;;;16.59;52.99
9893;BME280;4985;49.092;8.542;2023-03-21T08:30:13;99429.84;;;16.59;53.00
9893;BME280;4985;49.092;8.542;2023-03-21T08:32:41;99429.84;;;16.59;52.99
9893;BME280;4985;49.092;8.542;2023-03-21T08:35:10;99426.34;;;16.58;52.99
9893;BME280;4985;49.092;8.542;2023-03-21T08:37:39;99434.34;;;16.58;53.00
9893;BME280;4985;49.092;8.542;2023-03-21T08:40:07;99447.41;;;16.60;53.00
9893;BME280;4985;49.092;8.542;2023-03-21T08:42:35;99427.19;;;16.59;53.01
9893;BME280;4985;49.092;8.542;2023-03-21T08:45:02;99436.16;;;16.58;53.02
9893;BME280;4985;49.092;8.542;2023-03-21T08:47:31;99431.47;;;16.60;53.03
9893;BME280;4985;49.092;8.542;2023-03-21T08:49:58;99427.19;;;16.59;53.04
9893;BME280;4985;49.092;8.542;2023-03-21T08:52:25;99428.00;;;16.59;53.07
9893;BME280;4985;49.092;8.542;2023-03-21T08:54:51;99437.00;;;16.58;53.08
9893;BME280;4985;49.092;8.542;2023-03-21T08:57:18;99436.16;;;16.58;53.12
9893;BME280;4985;49.092;8.542;2023-03-21T08:59:45;99424.72;;;16.57;53.14
9893;BME280;4985;49.092;8.542;2023-03-21T09:02:12;99420.22;;;16.58;53.18
9893;BME280;4985;49.092;8.542;2023-03-21T09:04:40;99426.56;;;16.57;53.19
9893;BME280;4985;49.092;8.542;2023-03-21T09:07:07;99415.72;;;16.58;53.20
9893;BME280;4985;49.092;8.542;2023-03-21T09:09:35;99414.91;;;16.58;53.20
9893;BME280;4985;49.092;8.542;2023-03-21T09:12:03;99421.03;;;16.58;53.21
9893;BME280;4985;49.092;8.542;2023-03-21T09:14:29;99414.72;;;16.59;53.22
9893;BME280;4985;49.092;8.542;2023-03-21T09:16:57;99412.88;;;16.60;53.23
9893;BME280;4985;49.092;8.542;2023-03-21T09:19:23;99410.00;;;16.62;53.21
9893;BME280;4985;49.092;8.542;2023-03-21T09:21:51;99418.59;;;16.64;53.18
9893;BME280;4985;49.092;8.542;2023-03-21T09:24:19;99413.28;;;16.64;53.16
9893;BME280;4985;49.092;8.542;2023-03-21T09:26:47;99411.44;;;16.64;53.15
9893;BME280;4985;49.092;8.542;2023-03-21T09:29:16;99416.59;;;16.66;53.14
9893;BME280;4985;49.092;8.542;2023-03-21T09:31:43;99414.91;;;16.65;53.15
9893;BME280;4985;49.092;8.542;2023-03-21T09:34:11;99421.09;;;16.65;53.14
9893;BME280;4985;49.092;8.542;2023-03-21T09:36:40;99422.72;;;16.66;53.17
9893;BME280;4985;49.092;8.542;2023-03-21T09:39:10;99415.78;;;16.65;53.17
9893;BME280;4985;49.092;8.542;2023-03-21T09:42:08;99420.06;;;16.66;53.19
9893;BME280;4985;49.092;8.542;2023-03-21T09:44:47;99421.09;;;16.65;53.19
9893;BME280;4985;49.092;8.542;2023-03-21T09:47:19;99421.09;;;16.65;53.22
9893;BME280;4985;49.092;8.542;2023-03-21T09:49:52;99423.75;;;16.65;53.24
9893;BME280;4985;49.092;8.542;2023-03-21T09:52:25;99422.06;;;16.64;53.26
9893;BME280;4985;49.092;8.542;2023-03-21T09:54:55;99417.56;;;16.65;53.28
9893;BME280;4985;49.092;8.542;2023-03-21T09:57:29;99418.44;;;16.65;53.28
9893;BME280;4985;49.092;8.542;2023-03-21T09:59:59;99420.25;;;16.65;53.27
9893;BME280;4985;49.092;8.542;2023-03-21T10:02:38;99422.72;;;16.66;53.27
9893;BME280;4985;49.092;8.542;2023-03-21T10:05:13;99421.09;;;16.65;53.28
9893;BME280;4985;49.092;8.542;2023-03-21T10:07:45;99424.34;;;16.67;53.26
9893;BME280;4985;49.092;8.542;2023-03-21T10:10:18;99414.56;;;16.68;53.26
9893;BME280;4985;49.092;8.542;2023-03-21T10:12:45;99415.41;;;16.68;53.25
9893;BME280;4985;49.092;8.542;2023-03-21T10:15:18;99417.84;;;16.70;53.25
9893;BME280;4985;49.092;8.542;2023-03-21T10:17:49;99418.47;;;16.72;53.23
9893;BME280;4985;49.092;8.542;2023-03-21T10:20:19;99421.13;;;16.72;53.21
9893;BME280;4985;49.092;8.542;2023-03-21T10:22:48;99415.81;;;16.72;53.22
9893;BME280;4985;49.092;8.542;2023-03-21T10:25:19;99406.19;;;16.71;53.23
9893;BME280;4985;49.092;8.542;2023-03-21T10:27:47;99411.31;;;16.72;53.24
9893;BME280;4985;49.092;8.542;2023-03-21T10:30:22;99414.59;;;16.74;53.22
9893;BME280;4985;49.092;8.542;2023-03-21T10:32:51;99408.66;;;16.72;53.23
9893;BME280;4985;49.092;8.542;2023-03-21T10:35:20;99406.59;;;16.74;53.23
9893;BME280;4985;49.092;8.542;2023-03-21T10:37:46;99403.12;;;16.74;53.22
9893;BME280;4985;49.092;8.542;2023-03-21T10:40:14;99397.41;;;16.70;53.24
9893;BME280;4985;49.092;8.542;2023-03-21T10:42:43;99402.31;;;16.73;53.24
9893;BME280;4985;49.092;8.542;2023-03-21T10:45:15;99402.09;;;16.75;53.26
9893;BME280;4985;49.092;8.542;2023-03-21T10:47:46;99394.34;;;16.73;53.26
9893;BME280;4985;49.092;8.542;2023-03-21T10:50:16;99404.75;;;16.75;53.26
9893;BME280;4985;49.092;8.542;2023-03-21T10:52:46;99394.94;;;16.75;53.27
9893;BME280;4985;49.092;8.542;2023-03-21T10:55:18;99394.78;;;16.77;53.27
9893;BME280;4985;49.092;8.542;2023-03-21T10:57:48;99393.97;;;16.76;53.28
9893;BME280;4985;49.092;8.542;2023-03-21T11:00:20;99395.75;;;16.76;53.28
9893;BME280;4985;49.092;8.542;2023-03-21T11:02:49;99391.47;;;16.75;53.31
9893;BME280;4985;49.092;8.542;2023-03-21T11:05:20;99391.31;;;16.76;53.33
9893;BME280;4985;49.092;8.542;2023-03-21T11:07:56;99387.62;;;16.77;53.32
9893;BME280;4985;49.092;8.542;2023-03-21T11:10:29;99383.94;;;16.78;53.30
9893;BME280;4985;49.092;8.542;2023-03-21T11:13:01;99385.56;;;16.79;53.30
9893;BME280;4985;49.092;8.542;2023-03-21T11:15:30;99395.38;;;16.79;53.31
9893;BME280;4985;49.092;8.542;2023-03-21T11:17:58;99386.59;;;16.78;53.32
9893;BME280;4985;49.092;8.542;2023-03-21T11:20:25;99386.59;;;16.78;53.33
9893;BME280;4985;49.092;8.542;2023-03-21T11:22:55;99385.56;;;16.79;53.34
9893;BME280;4985;49.092;8.542;2023-03-21T11:25:36;99375.34;;;16.76;53.33
9893;BME280;4985;49.092;8.542;2023-03-21T11:28:08;99380.25;;;16.79;53.35
9893;BME280;4985;49.092;8.542;2023-03-21T11:30:48;99369.37;;;16.74;53.35
9893;BME280;4985;49.092;8.542;2023-03-21T11:33:18;99376.56;;;16.80;53.35
9893;BME280;4985;49.092;8.542;2023-03-21T11:35:57;99374.72;;;16.81;53.34
9893;BME280;4985;49.092;8.542;2023-03-21T11:38:26;99360.63;;;16.80;53.36
9893;BME280;4985;49.092;8.542;2023-03-21T11:40:58;99369.22;;;16.82;53.35
9893;BME280;4985;49.092;8.542;2023-03-21T11:43:28;99361.25;;;16.82;53.34
9893;BME280;4985;49.092;8.542;2023-03-21T11:45:57;99358.56;;;16.82;53.34
9893;BME280;4985;49.092;8.542;2023-03-21T11:48:24;99356.75;;;16.83;53.35
9893;BME280;4985;49.092;8.542;2023-03-21T11:50:58;99352.44;;;16.82;53.36
9893;BME280;4985;49.092;8.542;2023-03-21T11:53:33;99351.22;;;16.84;53.36
9893;BME280;4985;49.092;8.542;2023-03-21T11:56:15;99340.56;;;16.84;53.37
9893;BME280;4985;49.092;8.542;2023-03-21T11:59:03;99346.72;;;16.85;53.36
9893;BME280;4985;49.092;8.542;2023-03-21T12:01:36;99347.53;;;16.85;53.37
9893;BME280;4985;49.092;8.542;2023-03-21T12:04:17;99334.25;;;16.85;53.38
9893;BME280;4985;49.092;8.542;2023-03-21T12:06:49;99341.19;;;16.86;53.39
9893;BME280;4985;49.092;8.542;2023-03-21T12:09:35;99352.03;;;16.85;53.40
9893;BME280;4985;49.092;8.542;2023-03-21T12:12:10;99341.41;;;16.85;53.42
9893;BME280;4985;49.092;8.542;2023-03-21T12:14:50;99335.06;;;16.86;53.43
9893;BME280;4985;49.092;8.542;2023-03-21T12:17:29;99334.03;;;16.87;53.43
9893;BME280;4985;49.092;8.542;2023-03-21T12:20:13;99321.75;;;16.86;53.44
9893;BME280;4985;49.092;8.542;2023-03-21T12:22:51;99312.75;;;16.87;53.45
9893;BME280;4985;49.092;8.542;2023-03-21T12:25:26;99315.25;;;16.88;53.46
9893;BME280;4985;49.092;8.542;2023-03-21T12:28:01;99312.38;;;16.90;53.44
9893;BME280;4985;49.092;8.542;2023-03-21T12:30:39;99310.53;;;16.91;53.44
9893;BME280;4985;49.092;8.542;2023-03-21T12:33:28;99301.53;;;16.92;53.42
9893;BME280;4985;49.092;8.542;2023-03-21T12:36:09;99300.50;;;16.93;53.41
9893;BME280;4985;49.092;8.542;2023-03-21T12:38:45;99297.66;;;16.94;53.40
9893;BME280;4985;49.092;8.542;2023-03-21T12:41:23;99308.28;;;16.94;53.39
9893;BME280;4985;49.092;8.542;2023-03-21T12:43:56;99302.75;;;16.96;53.40
9893;BME280;4985;49.092;8.542;2023-03-21T12:46:31;99299.28;;;16.95;53.41
9893;BME280;4985;49.092;8.542;2023-03-21T12:49:02;99300.09;;;16.96;53.42
9893;BME280;4985;49.092;8.542;2023-03-21T12:51:34;99297.22;;;16.97;53.42
9893;BME280;4985;49.092;8.542;2023-03-21T12:54:07;99289.03;;;16.99;53.39
9893;BME280;4985;49.092;8.542;2023-03-21T12:56:44;99286.38;;;16.99;53.38
9893;BME280;4985;49.092;8.542;2023-03-21T12:59:22;99285.37;;;17.00;53.35
9893;BME280;4985;49.092;8.542;2023-03-21T13:01:54;99280.88;;;17.00;53.35
9893;BME280;4985;49.092;8.542;2023-03-21T13:04:42;99283.34;;;17.02;53.33
9893;BME280;4985;49.092;8.542;2023-03-21T13:07:14;99278.03;;;17.02;53.33
9893;BME280;4985;49.092;8.542;2023-03-21T13:09:44;99271.88;;;17.01;53.32
9893;BME280;4985;49.092;8.542;2023-03-21T13:12:27;99270.84;;;17.02;53.33
9893;BME280;4985;49.092;8.542;2023-03-21T13:15:05;99260.00;;;17.04;53.33
9893;BME280;4985;49.092;8.542;2023-03-21T13:17:40;99264.50;;;17.03;53.34
9893;BME280;4985;49.092;8.542;2023-03-21T13:20:16;99265.34;;;17.04;53.35
9893;BME280;4985;49.092;8.542;2023-03-21T13:22:45;99257.34;;;17.04;53.36
9893;BME280;4985;49.092;8.542;2023-03-21T13:25:17;99254.47;;;17.05;53.35
9893;BME280;4985;49.092;8.542;2023-03-21T13:27:50;99254.47;;;17.05;53.33
9893;BME280;4985;49.092;8.542;2023-03-21T13:30:20;99252.63;;;17.06;53.33
9893;BME280;4985;49.092;8.542;2023-03-21T13:32:50;99252.44;;;17.07;53.31
9893;BME280;4985;49.092;8.542;2023-03-21T13:35:20;99256.72;;;17.08;53.30
9893;BME280;4985;49.092;8.542;2023-03-21T13:37:54;99252.22;;;17.09;53.31
9893;BME280;4985;49.092;8.542;2023-03-21T13:40:24;99244.25;;;17.09;53.30
9893;BME280;4985;49.092;8.542;2023-03-21T13:42:53;99243.22;;;17.10;53.31
9893;BME280;4985;49.092;8.542;2023-03-21T13:45:27;99233.22;;;17.12;53.27
9893;BME280;4985;49.092;8.542;2023-03-21T13:47:58;99238.53;;;17.12;53.27
9893;BME280;4985;49.092;8.542;2023-03-21T13:53:23;99229.53;;;17.13;53.27